Wetterdaten: Woche 14.11.22 - 20.11.22 (KW46)
Datum Zeit Temp. Aussen Temp. o. S. Temp +5cm Feuchte Auss Luftdruck Regen Sonnenschein Regendauer Solar Windben Empfang
14.11.2022 00:00 4,4 C 3,1 C 0,0 C 92 % 1016,6 hPa 0,0 l/m 0,00 h 0,00 h 0 W/m 0,0 km/h (0 Bft) 98,16 %
14.11.2022 01:00 3,8 C 2,7 C -0,3 C 93 % 1016,1 hPa 0,0 l/m 0,00 h 0,00 h 0 W/m 0,0 km/h (0 Bft) 97,30 %
14.11.2022 02:00 3,3 C 2,3 C -0,6 C 94 % 1015,6 hPa 0,0 l/m 0,00 h 0,00 h 0 W/m 0,1 km/h (0 Bft) 96,15 %
14.11.2022 03:00 2,9 C 1,8 C -0,6 C 94 % 1015,0 hPa 0,0 l/m 0,00 h 0,00 h 0 W/m 0,3 km/h (0 Bft) 92,31 %
14.11.2022 04:00 2,5 C 1,9 C -0,9 C 94 % 1014,5 hPa 0,0 l/m 0,00 h 0,00 h 0 W/m 2,1 km/h (1 Bft) 97,01 %
14.11.2022 05:00 2,9 C 2,7 C -0,1 C 95 % 1014,2 hPa 0,0 l/m 0,00 h 0,00 h 0 W/m 1,8 km/h (1 Bft) 98,22 %
14.11.2022 06:00 3,7 C 3,8 C 0,9 C 95 % 1013,9 hPa 0,0 l/m 0,00 h 0,00 h 0 W/m 3,9 km/h (1 Bft) 93,93 %
14.11.2022 07:00 4,0 C 3,4 C 0,6 C 93 % 1013,6 hPa 0,0 l/m 0,00 h 0,00 h 5 W/m 2,6 km/h (1 Bft) 97,16 %
14.11.2022 08:00 3,8 C 3,2 C 0,2 C 93 % 1013,7 hPa 0,0 l/m 0,00 h 0,00 h 17 W/m 5,6 km/h (1 Bft) 98,07 %
14.11.2022 09:00 5,7 C 5,6 C 2,3 C 92 % 1013,7 hPa 0,0 l/m 0,00 h 0,00 h 50 W/m 12,9 km/h (3 Bft) 95,47 %
14.11.2022 10:00 6,5 C 6,1 C 3,0 C 92 % 1013,4 hPa 0,0 l/m 0,00 h 0,00 h 56 W/m 14,7 km/h (3 Bft) 97,01 %
14.11.2022 11:00 7,0 C 6,8 C 3,6 C 90 % 1013,0 hPa 0,0 l/m 0,00 h 0,00 h 81 W/m 16,2 km/h (3 Bft) 96,44 %
14.11.2022 12:00 7,7 C 7,4 C 4,1 C 89 % 1012,5 hPa 0,0 l/m 0,03 h 0,00 h 88 W/m 17,1 km/h (3 Bft) 98,23 %
14.11.2022 13:00 8,6 C 8,6 C 5,0 C 88 % 1011,8 hPa 0,0 l/m 0,33 h 0,00 h 166 W/m 16,9 km/h (3 Bft) 95,74 %
14.11.2022 14:00 8,7 C 8,0 C 4,8 C 88 % 1011,8 hPa 0,0 l/m 0,00 h 0,00 h 34 W/m 17,5 km/h (3 Bft) 98,93 %
14.11.2022 15:00 8,4 C 7,8 C 4,4 C 88 % 1011,3 hPa 0,0 l/m 0,00 h 0,00 h 15 W/m 18,2 km/h (3 Bft) 95,94 %
14.11.2022 16:00 8,4 C 7,8 C 4,4 C 88 % 1010,8 hPa 0,0 l/m 0,00 h 0,00 h 7 W/m 16,5 km/h (3 Bft) 98,07 %
14.11.2022 17:00 8,3 C 7,8 C 4,4 C 89 % 1010,6 hPa 0,0 l/m 0,00 h 0,00 h 0 W/m 13,4 km/h (3 Bft) 97,51 %
14.11.2022 18:00 8,3 C 7,8 C 4,4 C 90 % 1010,6 hPa 0,0 l/m 0,00 h 0,00 h 0 W/m 13,9 km/h (3 Bft) 96,60 %
14.11.2022 19:00 8,0 C 7,0 C 4,0 C 90 % 1010,5 hPa 0,0 l/m 0,00 h 0,00 h 0 W/m 6,3 km/h (2 Bft) 97,29 %
14.11.2022 20:00 7,1 C 6,1 C 3,1 C 91 % 1010,4 hPa 0,0 l/m 0,00 h 0,00 h 0 W/m 7,2 km/h (2 Bft) 96,17 %
14.11.2022 21:00 7,0 C 6,5 C 3,4 C 93 % 1010,5 hPa 0,0 l/m 0,00 h 0,00 h 0 W/m 10,6 km/h (2 Bft) 94,98 %
14.11.2022 22:00 7,5 C 7,1 C 4,1 C 92 % 1010,3 hPa 0,0 l/m 0,00 h 0,00 h 0 W/m 10,8 km/h (2 Bft) 97,40 %
14.11.2022 23:00 8,2 C 7,7 C 4,5 C 92 % 1010,1 hPa 0,0 l/m 0,00 h 0,00 h 0 W/m 11,1 km/h (2 Bft) 97,36 %
15.11.2022 00:00 8,7 C 8,1 C 5,0 C 92 % 1010,0 hPa 0,0 l/m 0,00 h 0,03 h 0 W/m 12,9 km/h (3 Bft) 96,19 %
15.11.2022 01:00 9,2 C 8,6 C 5,4 C 94 % 1009,7 hPa 0,0 l/m 0,00 h 0,00 h 0 W/m 10,8 km/h (2 Bft) 99,01 %
15.11.2022 02:00 9,7 C 9,2 C 5,9 C 94 % 1009,4 hPa 0,0 l/m 0,00 h 0,00 h 0 W/m 8,6 km/h (2 Bft) 95,87 %
15.11.2022 03:00 10,2 C 9,6 C 6,3 C 95 % 1009,0 hPa 0,0 l/m 0,00 h 0,00 h 0 W/m 10,1 km/h (2 Bft) 97,86 %
15.11.2022 04:00 10,8 C 10,3 C 6,9 C 95 % 1008,7 hPa 0,0 l/m 0,00 h 0,00 h 0 W/m 9,5 km/h (2 Bft) 97,81 %
15.11.2022 05:00 11,3 C 10,6 C 7,2 C 95 % 1008,5 hPa 0,0 l/m 0,00 h 0,00 h 0 W/m 11,2 km/h (2 Bft) 96,71 %
15.11.2022 06:00 11,4 C 10,6 C 7,2 C 94 % 1008,3 hPa 0,0 l/m 0,00 h 0,00 h 0 W/m 9,1 km/h (2 Bft) 96,27 %
15.11.2022 07:00 11,3 C 10,6 C 7,2 C 94 % 1008,4 hPa 0,0 l/m 0,00 h 0,00 h 0 W/m 8,4 km/h (2 Bft) 95,96 %
15.11.2022 08:00 11,4 C 10,5 C 7,2 C 94 % 1009,2 hPa 0,6 l/m 0,00 h 0,37 h 12 W/m 21,8 km/h (4 Bft) 95,36 %
15.11.2022 09:00 10,9 C 10,2 C 6,7 C 96 % 1009,3 hPa 0,0 l/m 0,00 h 0,07 h 52 W/m 4,6 km/h (1 Bft) 98,39 %
15.11.2022 10:00 11,2 C 12,6 C 7,0 C 96 % 1008,8 hPa 0,0 l/m 0,37 h 0,00 h 133 W/m 6,1 km/h (2 Bft) 96,66 %
15.11.2022 11:00 12,2 C 12,2 C 7,6 C 86 % 1008,1 hPa 0,0 l/m 0,00 h 0,00 h 68 W/m 14,5 km/h (3 Bft) 95,45 %
15.11.2022 12:00 13,0 C 12,9 C 8,8 C 77 % 1007,5 hPa 0,0 l/m 0,00 h 0,00 h 100 W/m 15,7 km/h (3 Bft) 97,51 %
15.11.2022 13:00 13,7 C 14,3 C 8,9 C 71 % 1006,5 hPa 0,0 l/m 0,97 h 0,00 h 257 W/m 14,4 km/h (3 Bft) 95,31 %
15.11.2022 14:00 13,7 C 13,4 C 8,9 C 74 % 1005,5 hPa 0,0 l/m 0,37 h 0,00 h 127 W/m 14,3 km/h (3 Bft) 95,73 %
15.11.2022 15:00 13,4 C 12,8 C 8,9 C 77 % 1004,5 hPa 0,0 l/m 0,00 h 0,00 h 45 W/m 14,6 km/h (3 Bft) 98,09 %
15.11.2022 16:00 13,4 C 12,6 C 8,8 C 79 % 1003,7 hPa 0,0 l/m 0,00 h 0,00 h 17 W/m 15,1 km/h (3 Bft) 95,79 %
15.11.2022 17:00 13,2 C 12,4 C 8,6 C 81 % 1003,0 hPa 0,0 l/m 0,00 h 0,00 h 0 W/m 16,5 km/h (3 Bft) 96,46 %
15.11.2022 18:00 13,3 C 12,5 C 8,7 C 82 % 1002,9 hPa 0,0 l/m 0,00 h 0,10 h 0 W/m 17,3 km/h (3 Bft) 98,25 %
15.11.2022 19:00 12,5 C 11,3 C 6,9 C 88 % 1002,5 hPa 1,0 l/m 0,00 h 0,97 h 0 W/m 13,7 km/h (3 Bft) 94,15 %
15.11.2022 20:00 11,8 C 10,7 C 6,9 C 93 % 1002,1 hPa 0,6 l/m 0,00 h 0,90 h 0 W/m 13,3 km/h (3 Bft) 98,50 %
15.11.2022 21:00 11,6 C 10,6 C 7,2 C 95 % 1001,7 hPa 0,4 l/m 0,00 h 0,63 h 0 W/m 15,0 km/h (3 Bft) 97,22 %
15.11.2022 22:00 11,5 C 10,6 C 7,2 C 96 % 1001,2 hPa 0,4 l/m 0,00 h 1,00 h 0 W/m 14,5 km/h (3 Bft) 83,76 %
15.11.2022 23:00 11,4 C 10,6 C 7,2 C 97 % 1000,6 hPa 1,4 l/m 0,00 h 1,00 h 0 W/m 15,7 km/h (3 Bft) 97,08 %
16.11.2022 00:00 11,3 C 10,6 C 7,2 C 98 % 1000,0 hPa 0,8 l/m 0,00 h 0,97 h 0 W/m 13,8 km/h (3 Bft) 94,11 %
16.11.2022 01:00 11,3 C 10,6 C 7,7 C 98 % 999,6 hPa 1,0 l/m 0,00 h 1,00 h 0 W/m 13,7 km/h (3 Bft) 97,08 %
16.11.2022 02:00 11,2 C 10,3 C 7,8 C 98 % 999,5 hPa 2,2 l/m 0,00 h 1,00 h 0 W/m 13,6 km/h (3 Bft) 93,74 %
16.11.2022 03:00 11,1 C 10,0 C 7,8 C 98 % 999,1 hPa 0,6 l/m 0,00 h 1,00 h 0 W/m 11,9 km/h (2 Bft) 82,98 %
16.11.2022 04:00 11,1 C 10,0 C 7,8 C 99 % 998,9 hPa 0,6 l/m 0,00 h 0,83 h 0 W/m 8,3 km/h (2 Bft) 83,90 %
16.11.2022 05:00 11,0 C 10,0 C 7,8 C 99 % 999,3 hPa 0,0 l/m 0,00 h 0,33 h 0 W/m 9,9 km/h (2 Bft) 89,19 %
16.11.2022 06:00 10,7 C 10,0 C 7,4 C 99 % 999,7 hPa 0,0 l/m 0,00 h 0,00 h 0 W/m 9,5 km/h (2 Bft) 67,73 %
16.11.2022 07:00 10,3 C 9,4 C 6,9 C 99 % 1000,1 hPa 0,0 l/m 0,00 h 0,00 h 0 W/m 10,9 km/h (2 Bft) 72,07 %
16.11.2022 08:00 9,6 C 8,6 C 6,3 C 98 % 1000,8 hPa 0,2 l/m 0,00 h 0,00 h 15 W/m 5,6 km/h (1 Bft) 96,68 %
16.11.2022 09:00 9,3 C 9,0 C 6,1 C 98 % 1001,4 hPa 0,0 l/m 0,17 h 0,00 h 62 W/m 5,8 km/h (2 Bft) 99,36 %
16.11.2022 10:00 9,8 C 9,8 C 6,7 C 97 % 1001,9 hPa 0,0 l/m 0,00 h 0,00 h 95 W/m 9,6 km/h (2 Bft) 94,76 %
16.11.2022 11:00 11,1 C 11,0 C 7,6 C 89 % 1001,9 hPa 0,0 l/m 0,00 h 0,00 h 57 W/m 17,5 km/h (3 Bft) 99,57 %
16.11.2022 12:00 12,2 C 12,2 C 8,4 C 83 % 1001,4 hPa 0,0 l/m 0,03 h 0,00 h 61 W/m 15,1 km/h (3 Bft) 96,79 %
16.11.2022 13:00 13,1 C 13,7 C 8,8 C 79 % 1000,8 hPa 0,0 l/m 0,57 h 0,00 h 216 W/m 13,8 km/h (3 Bft) 95,58 %
16.11.2022 14:00 13,3 C 14,0 C 8,9 C 79 % 1000,2 hPa 0,0 l/m 0,83 h 0,00 h 204 W/m 13,3 km/h (3 Bft) 96,30 %
16.11.2022 15:00 13,0 C 12,1 C 8,5 C 80 % 999,8 hPa 0,0 l/m 0,20 h 0,00 h 51 W/m 8,9 km/h (2 Bft) 89,81 %
16.11.2022 16:00 11,9 C 10,6 C 7,3 C 82 % 999,4 hPa 0,0 l/m 0,00 h 0,00 h 9 W/m 6,9 km/h (2 Bft) 97,78 %
16.11.2022 17:00 10,5 C 9,2 C 6,4 C 87 % 998,9 hPa 0,0 l/m 0,00 h 0,00 h 0 W/m 7,4 km/h (2 Bft) 96,78 %
16.11.2022 18:00 9,9 C 9,1 C 6,1 C 90 % 998,4 hPa 0,0 l/m 0,00 h 0,00 h 0 W/m 8,6 km/h (2 Bft) 96,20 %
16.11.2022 19:00 9,8 C 9,1 C 6,1 C 90 % 997,9 hPa 0,0 l/m 0,00 h 0,00 h 0 W/m 8,8 km/h (2 Bft) 97,79 %
16.11.2022 20:00 9,9 C 9,2 C 6,3 C 91 % 997,5 hPa 0,0 l/m 0,00 h 0,00 h 0 W/m 12,7 km/h (3 Bft) 98,22 %
16.11.2022 21:00 10,2 C 9,4 C 6,7 C 91 % 996,5 hPa 0,0 l/m 0,00 h 0,00 h 0 W/m 14,8 km/h (3 Bft) 97,59 %
16.11.2022 22:00 10,5 C 10,0 C 6,7 C 91 % 995,6 hPa 0,0 l/m 0,00 h 0,00 h 0 W/m 19,2 km/h (3 Bft) 96,66 %
16.11.2022 23:00 10,5 C 9,7 C 6,2 C 91 % 994,4 hPa 0,4 l/m 0,00 h 0,60 h 0 W/m 19,6 km/h (3 Bft) 97,03 %
17.11.2022 00:00 10,3 C 9,3 C 6,1 C 94 % 992,8 hPa 1,2 l/m 0,00 h 0,93 h 0 W/m 22,3 km/h (4 Bft) 95,34 %
17.11.2022 01:00 10,2 C 9,4 C 6,1 C 96 % 990,9 hPa 1,2 l/m 0,00 h 0,53 h 0 W/m 25,6 km/h (4 Bft) 98,58 %
17.11.2022 02:00 10,2 C 8,9 C 6,4 C 96 % 989,6 hPa 1,6 l/m 0,00 h 0,77 h 0 W/m 30,8 km/h (5 Bft) 98,39 %
17.11.2022 03:00 10,2 C 9,2 C 6,7 C 96 % 988,8 hPa 0,4 l/m 0,00 h 0,37 h 0 W/m 29,3 km/h (5 Bft) 95,37 %
17.11.2022 04:00 10,2 C 8,9 C 6,7 C 96 % 988,2 hPa 1,2 l/m 0,00 h 0,53 h 0 W/m 24,9 km/h (4 Bft) 98,44 %
17.11.2022 05:00 10,1 C 9,3 C 6,7 C 96 % 987,4 hPa 0,0 l/m 0,00 h 0,00 h 0 W/m 25,1 km/h (4 Bft) 97,37 %
17.11.2022 06:00 10,1 C 9,0 C 6,7 C 96 % 987,1 hPa 1,2 l/m 0,00 h 0,97 h 0 W/m 20,0 km/h (4 Bft) 96,89 %
17.11.2022 07:00 10,2 C 9,4 C 6,7 C 97 % 987,5 hPa 0,2 l/m 0,00 h 0,20 h 0 W/m 18,3 km/h (3 Bft) 98,58 %
17.11.2022 08:00 10,3 C 9,5 C 6,7 C 95 % 988,2 hPa 0,0 l/m 0,00 h 0,40 h 11 W/m 18,5 km/h (3 Bft) 97,50 %
17.11.2022 09:00 10,3 C 9,4 C 6,7 C 93 % 988,8 hPa 0,4 l/m 0,00 h 0,67 h 39 W/m 22,7 km/h (4 Bft) 96,16 %
17.11.2022 10:00 10,7 C 10,3 C 6,7 C 92 % 989,4 hPa 0,0 l/m 0,00 h 0,00 h 68 W/m 20,2 km/h (4 Bft) 97,65 %
17.11.2022 11:00 11,6 C 11,3 C 6,8 C 85 % 990,1 hPa 0,0 l/m 0,07 h 0,03 h 95 W/m 27,7 km/h (4 Bft) 97,44 %
17.11.2022 12:00 12,1 C 11,7 C 8,2 C 81 % 990,4 hPa 0,0 l/m 0,00 h 0,00 h 84 W/m 28,1 km/h (4 Bft) 96,94 %
17.11.2022 13:00 12,1 C 11,7 C 8,3 C 80 % 990,8 hPa 0,0 l/m 0,00 h 0,00 h 64 W/m 28,6 km/h (4 Bft) 96,17 %
17.11.2022 14:00 12,2 C 11,7 C 8,3 C 79 % 991,1 hPa 0,0 l/m 0,00 h 0,00 h 60 W/m 17,0 km/h (3 Bft) 97,74 %
17.11.2022 15:00 12,2 C 11,7 C 7,8 C 80 % 991,4 hPa 0,0 l/m 0,00 h 0,00 h 28 W/m 8,7 km/h (2 Bft) 96,44 %
17.11.2022 16:00 12,1 C 11,2 C 7,8 C 81 % 991,8 hPa 0,0 l/m 0,00 h 0,00 h 12 W/m 9,2 km/h (2 Bft) 96,44 %
17.11.2022 17:00 11,8 C 10,8 C 7,5 C 81 % 992,3 hPa 0,0 l/m 0,00 h 0,00 h 0 W/m 10,4 km/h (2 Bft) 97,16 %
17.11.2022 18:00 11,0 C 10,0 C 6,7 C 83 % 992,8 hPa 0,0 l/m 0,00 h 0,00 h 0 W/m 6,8 km/h (2 Bft) 95,46 %
17.11.2022 19:00 10,5 C 9,5 C 6,5 C 85 % 993,4 hPa 0,0 l/m 0,00 h 0,00 h 0 W/m 6,5 km/h (2 Bft) 97,23 %
17.11.2022 20:00 9,8 C 8,6 C 5,7 C 87 % 993,9 hPa 0,0 l/m 0,00 h 0,00 h 0 W/m 5,6 km/h (1 Bft) 98,36 %
17.11.2022 21:00 9,3 C 8,2 C 5,4 C 90 % 994,6 hPa 0,0 l/m 0,00 h 0,00 h 0 W/m 5,0 km/h (1 Bft) 95,52 %
17.11.2022 22:00 8,6 C 7,5 C 4,8 C 91 % 995,2 hPa 0,0 l/m 0,00 h 0,00 h 0 W/m 5,8 km/h (2 Bft) 97,06 %
17.11.2022 23:00 8,2 C 7,2 C 4,5 C 93 % 995,6 hPa 0,0 l/m 0,00 h 0,00 h 0 W/m 7,7 km/h (2 Bft) 97,71 %
18.11.2022 00:00 8,2 C 7,8 C 5,0 C 94 % 996,1 hPa 0,0 l/m 0,00 h 0,00 h 0 W/m 6,9 km/h (2 Bft) 94,66 %
18.11.2022 01:00 8,5 C 7,8 C 5,0 C 95 % 996,5 hPa 0,2 l/m 0,00 h 0,13 h 0 W/m 5,7 km/h (1 Bft) 99,57 %
18.11.2022 02:00 8,7 C 7,8 C 5,0 C 95 % 997,0 hPa 0,0 l/m 0,00 h 0,10 h 0 W/m 4,0 km/h (1 Bft) 96,51 %
18.11.2022 03:00 8,6 C 7,8 C 5,0 C 96 % 997,5 hPa 0,0 l/m 0,00 h 0,17 h 0 W/m 3,4 km/h (1 Bft) 97,65 %
18.11.2022 04:00 8,3 C 7,6 C 5,0 C 96 % 998,0 hPa 0,0 l/m 0,00 h 0,00 h 0 W/m 4,3 km/h (1 Bft) 96,73 %
18.11.2022 05:00 8,3 C 7,8 C 5,0 C 96 % 998,7 hPa 0,2 l/m 0,00 h 0,30 h 0 W/m 2,5 km/h (1 Bft) 98,50 %
18.11.2022 06:00 8,2 C 7,2 C 4,7 C 96 % 999,2 hPa 0,0 l/m 0,00 h 0,00 h 0 W/m 0,6 km/h (0 Bft) 96,00 %
18.11.2022 07:00 8,2 C 7,6 C 5,0 C 96 % 1000,0 hPa 0,0 l/m 0,00 h 0,00 h 0 W/m 1,2 km/h (1 Bft) 97,34 %
18.11.2022 08:00 8,1 C 7,4 C 4,7 C 96 % 1000,8 hPa 0,0 l/m 0,00 h 0,00 h 15 W/m 3,0 km/h (1 Bft) 98,47 %
18.11.2022 09:00 8,2 C 7,9 C 5,0 C 96 % 1001,6 hPa 0,0 l/m 0,00 h 0,00 h 44 W/m 3,6 km/h (1 Bft) 95,45 %
18.11.2022 10:00 9,2 C 10,1 C 5,9 C 95 % 1002,1 hPa 0,0 l/m 0,57 h 0,00 h 152 W/m 7,8 km/h (2 Bft) 98,51 %
18.11.2022 11:00 10,0 C 10,0 C 6,6 C 91 % 1002,7 hPa 0,0 l/m 0,00 h 0,00 h 57 W/m 9,4 km/h (2 Bft) 98,65 %
18.11.2022 12:00 11,0 C 11,4 C 7,7 C 87 % 1003,0 hPa 0,0 l/m 0,10 h 0,00 h 135 W/m 11,1 km/h (2 Bft) 94,21 %
18.11.2022 13:00 11,2 C 11,4 C 7,4 C 85 % 1003,2 hPa 0,0 l/m 0,30 h 0,00 h 131 W/m 15,4 km/h (3 Bft) 99,43 %
18.11.2022 14:00 11,1 C 11,3 C 7,2 C 85 % 1003,6 hPa 0,0 l/m 0,40 h 0,00 h 126 W/m 10,8 km/h (2 Bft) 97,22 %
18.11.2022 15:00 10,7 C 10,0 C 6,6 C 86 % 1003,9 hPa 0,0 l/m 0,00 h 0,00 h 45 W/m 3,9 km/h (1 Bft) 96,59 %
18.11.2022 16:00 9,8 C 8,0 C 5,0 C 88 % 1004,2 hPa 0,0 l/m 0,00 h 0,00 h 12 W/m 1,3 km/h (1 Bft) 97,86 %
18.11.2022 17:00 8,6 C 7,4 C 4,6 C 91 % 1004,6 hPa 0,0 l/m 0,00 h 0,00 h 0 W/m 0,3 km/h (0 Bft) 97,40 %
18.11.2022 18:00 8,6 C 7,6 C 4,6 C 93 % 1005,1 hPa 1,0 l/m 0,00 h 0,43 h 0 W/m 3,3 km/h (1 Bft) 96,91 %
18.11.2022 19:00 8,4 C 7,4 C 4,6 C 95 % 1005,5 hPa 0,2 l/m 0,00 h 0,03 h 0 W/m 0,1 km/h (0 Bft) 97,30 %
18.11.2022 20:00 8,4 C 7,2 C 5,0 C 95 % 1005,8 hPa 0,6 l/m 0,00 h 0,40 h 0 W/m 0,0 km/h (0 Bft) 94,96 %
18.11.2022 21:00 8,2 C 7,2 C 5,0 C 96 % 1006,2 hPa 5,8 l/m 0,00 h 1,00 h 0 W/m 1,1 km/h (0 Bft) 97,18 %
18.11.2022 22:00 8,1 C 7,2 C 4,8 C 97 % 1006,4 hPa 2,4 l/m 0,00 h 1,00 h 0 W/m 2,5 km/h (1 Bft) 94,92 %
18.11.2022 23:00 7,5 C 6,5 C 4,3 C 97 % 1006,7 hPa 0,2 l/m 0,00 h 0,13 h 0 W/m 7,3 km/h (2 Bft) 96,27 %
19.11.2022 00:00 6,3 C 5,7 C 3,3 C 98 % 1007,2 hPa 0,2 l/m 0,00 h 0,13 h 0 W/m 8,1 km/h (2 Bft) 96,06 %
19.11.2022 01:00 5,5 C 4,6 C 2,7 C 98 % 1007,4 hPa 0,2 l/m 0,00 h 0,20 h 0 W/m 9,9 km/h (2 Bft) 97,53 %
19.11.2022 02:00 4,8 C 4,1 C 2,0 C 98 % 1007,8 hPa 0,0 l/m 0,00 h 0,00 h 0 W/m 13,4 km/h (3 Bft) 98,80 %
19.11.2022 03:00 4,0 C 3,3 C 1,4 C 98 % 1008,2 hPa 0,0 l/m 0,00 h 0,00 h 0 W/m 13,2 km/h (3 Bft) 93,07 %
19.11.2022 04:00 3,4 C 2,8 C 0,8 C 98 % 1008,5 hPa 0,0 l/m 0,00 h 0,00 h 0 W/m 13,2 km/h (3 Bft) 98,43 %
19.11.2022 05:00 3,1 C 2,8 C 0,3 C 97 % 1008,9 hPa 0,0 l/m 0,00 h 0,00 h 0 W/m 11,9 km/h (2 Bft) 95,34 %
19.11.2022 06:00 2,9 C 2,2 C 0,0 C 96 % 1009,4 hPa 0,0 l/m 0,00 h 0,00 h 0 W/m 12,2 km/h (2 Bft) 97,34 %
19.11.2022 07:00 2,6 C 2,2 C 0,0 C 95 % 1010,0 hPa 0,0 l/m 0,00 h 0,00 h 0 W/m 10,9 km/h (2 Bft) 94,51 %
19.11.2022 08:00 2,4 C 2,2 C 0,0 C 94 % 1010,7 hPa 0,0 l/m 0,00 h 0,00 h 15 W/m 11,7 km/h (2 Bft) 98,51 %
19.11.2022 09:00 2,4 C 2,2 C 0,0 C 94 % 1011,3 hPa 0,0 l/m 0,00 h 0,00 h 32 W/m 10,3 km/h (2 Bft) 97,87 %
19.11.2022 10:00 2,6 C 2,3 C 0,0 C 92 % 1011,9 hPa 0,0 l/m 0,00 h 0,00 h 40 W/m 10,9 km/h (2 Bft) 93,97 %
19.11.2022 11:00 2,5 C 2,3 C -0,0 C 91 % 1012,3 hPa 0,0 l/m 0,00 h 0,00 h 57 W/m 11,8 km/h (2 Bft) 96,54 %
19.11.2022 12:00 2,3 C 2,2 C -0,0 C 92 % 1012,4 hPa 0,0 l/m 0,00 h 0,00 h 73 W/m 12,3 km/h (3 Bft) 94,52 %
19.11.2022 13:00 2,6 C 2,9 C 0,2 C 92 % 1012,4 hPa 0,0 l/m 0,00 h 0,00 h 87 W/m 10,0 km/h (2 Bft) 94,85 %
19.11.2022 14:00 3,0 C 3,2 C 0,6 C 89 % 1012,5 hPa 0,0 l/m 0,00 h 0,00 h 56 W/m 10,6 km/h (2 Bft) 96,57 %
19.11.2022 15:00 3,1 C 2,9 C 0,2 C 87 % 1012,6 hPa 0,0 l/m 0,00 h 0,00 h 24 W/m 8,9 km/h (2 Bft) 97,49 %
19.11.2022 16:00 2,9 C 2,7 C 0,0 C 85 % 1012,9 hPa 0,0 l/m 0,00 h 0,00 h 8 W/m 7,6 km/h (2 Bft) 93,20 %
19.11.2022 17:00 2,7 C 2,2 C -0,4 C 85 % 1013,1 hPa 0,0 l/m 0,00 h 0,00 h 0 W/m 8,0 km/h (2 Bft) 97,06 %
19.11.2022 18:00 2,4 C 2,1 C -0,7 C 83 % 1013,3 hPa 0,0 l/m 0,00 h 0,00 h 0 W/m 7,3 km/h (2 Bft) 97,57 %
19.11.2022 19:00 2,3 C 2,2 C -1,0 C 83 % 1013,3 hPa 0,0 l/m 0,00 h 0,00 h 0 W/m 5,9 km/h (2 Bft) 97,23 %
19.11.2022 20:00 2,2 C 1,9 C -1,1 C 84 % 1013,2 hPa 0,0 l/m 0,00 h 0,00 h 0 W/m 5,7 km/h (1 Bft) 97,22 %
19.11.2022 21:00 2,1 C 1,8 C -1,1 C 85 % 1013,4 hPa 0,0 l/m 0,00 h 0,00 h 0 W/m 4,4 km/h (1 Bft) 97,24 %
19.11.2022 22:00 1,9 C 1,7 C -1,3 C 86 % 1013,4 hPa 0,0 l/m 0,00 h 0,00 h 0 W/m 5,3 km/h (1 Bft) 98,92 %
19.11.2022 23:00 1,8 C 1,3 C -1,3 C 87 % 1013,4 hPa 0,0 l/m 0,00 h 0,00 h 0 W/m 2,6 km/h (1 Bft) 94,07 %
20.11.2022 00:00 1,7 C 1,1 C -1,7 C 87 % 1013,3 hPa 0,0 l/m 0,00 h 0,00 h 0 W/m 2,8 km/h (1 Bft) 97,91 %
20.11.2022 01:00 1,7 C 1,1 C -1,5 C 88 % 1013,1 hPa 0,0 l/m 0,00 h 0,00 h 0 W/m 1,7 km/h (1 Bft) 96,76 %
20.11.2022 02:00 1,8 C 1,1 C -1,2 C 88 % 1012,8 hPa 0,0 l/m 0,00 h 0,00 h 0 W/m 2,1 km/h (1 Bft) 97,21 %
20.11.2022 03:00 1,3 C 0,0 C -2,3 C 89 % 1012,5 hPa 0,0 l/m 0,00 h 0,00 h 0 W/m 2,1 km/h (1 Bft) 96,09 %
20.11.2022 04:00 0,2 C -1,0 C -3,2 C 91 % 1012,5 hPa 0,0 l/m 0,00 h 0,00 h 0 W/m 1,6 km/h (1 Bft) 98,14 %
20.11.2022 05:00 -0,0 C -0,6 C -2,9 C 93 % 1012,3 hPa 0,0 l/m 0,00 h 0,00 h 0 W/m 4,8 km/h (1 Bft) 98,01 %
20.11.2022 06:00 0,3 C -0,0 C -2,3 C 93 % 1012,2 hPa 0,0 l/m 0,00 h 0,00 h 0 W/m 1,5 km/h (1 Bft) 97,87 %
20.11.2022 07:00 0,6 C 0,1 C -2,1 C 93 % 1012,1 hPa 0,0 l/m 0,00 h 0,00 h 0 W/m 1,1 km/h (0 Bft) 94,13 %
20.11.2022 08:00 0,9 C 0,7 C -1,7 C 94 % 1012,4 hPa 0,0 l/m 0,00 h 0,00 h 16 W/m 1,2 km/h (1 Bft) 97,87 %
20.11.2022 09:00 1,5 C 1,6 C -0,9 C 94 % 1012,2 hPa 0,0 l/m 0,00 h 0,00 h 51 W/m 2,7 km/h (1 Bft) 95,23 %
20.11.2022 10:00 2,4 C 2,8 C 0,1 C 93 % 1012,1 hPa 0,0 l/m 0,00 h 0,00 h 84 W/m 3,2 km/h (1 Bft) 92,63 %
20.11.2022 11:00 3,3 C 3,2 C 0,6 C 93 % 1011,6 hPa 0,0 l/m 0,00 h 0,00 h 67 W/m 5,7 km/h (1 Bft) 98,98 %
20.11.2022 12:00 3,9 C 3,8 C 1,0 C 93 % 1010,5 hPa 0,0 l/m 0,00 h 0,00 h 71 W/m 7,0 km/h (2 Bft) 95,64 %
20.11.2022 13:00 4,4 C 4,3 C 1,6 C 92 % 1009,7 hPa 0,0 l/m 0,00 h 0,07 h 56 W/m 10,1 km/h (2 Bft) 95,79 %
20.11.2022 14:00 4,8 C 4,4 C 1,5 C 93 % 1008,7 hPa 0,0 l/m 0,00 h 0,07 h 54 W/m 10,4 km/h (2 Bft) 98,44 %
20.11.2022 15:00 4,9 C 4,4 C 1,7 C 93 % 1007,5 hPa 0,0 l/m 0,00 h 0,00 h 31 W/m 11,7 km/h (2 Bft) 96,02 %
20.11.2022 16:00 4,9 C 4,2 C 1,3 C 93 % 1006,6 hPa 1,4 l/m 0,00 h 0,77 h 8 W/m 10,7 km/h (2 Bft) 95,96 %
20.11.2022 17:00 5,0 C 4,2 C 1,4 C 95 % 1005,6 hPa 1,6 l/m 0,00 h 0,97 h 0 W/m 9,0 km/h (2 Bft) 98,05 %
20.11.2022 18:00 5,3 C 4,5 C 1,9 C 96 % 1004,3 hPa 0,6 l/m 0,00 h 0,63 h 0 W/m 12,6 km/h (3 Bft) 96,06 %
20.11.2022 19:00 6,0 C 5,4 C 2,6 C 97 % 1003,4 hPa 0,4 l/m 0,00 h 0,40 h 0 W/m 12,8 km/h (3 Bft) 98,16 %
20.11.2022 20:00 7,4 C 6,5 C 3,7 C 98 % 1002,5 hPa 1,4 l/m 0,00 h 0,73 h 0 W/m 23,2 km/h (4 Bft) 94,99 %
20.11.2022 21:00 7,6 C 6,7 C 3,9 C 96 % 1003,0 hPa 0,0 l/m 0,00 h 0,23 h 0 W/m 22,9 km/h (4 Bft) 98,01 %
20.11.2022 22:00 7,6 C 6,7 C 3,9 C 95 % 1003,8 hPa 0,0 l/m 0,00 h 0,10 h 0 W/m 19,7 km/h (3 Bft) 94,69 %
20.11.2022 23:00 7,2 C 6,3 C 3,4 C 95 % 1004,2 hPa 0,2 l/m 0,00 h 0,37 h 0 W/m 15,2 km/h (3 Bft) 98,80 %
Min-Datum _ 20.11.22 20.11.22 20.11.22 15.11.22 17.11.22 - - - - 14.11.22 16.11.22
_ Min-Zeit 05:10 03:54 03:58 13:46 06:32 - - - - 00:00 06:38
Minimum _ -0,1 C -1,1 C -3,3 C 69 % 987,0 hPa - - - - 0,0 km/h (0 Bft) 6,52 %
Max-Datum _ 15.11.22 15.11.22 15.11.22 16.11.22 14.11.22 18.11.22 16.11.22 15.11.22 16.11.22 17.11.22 14.11.22
_ Max-Zeit 13:40 10:30 13:44 03:12 00:00 21:24 14:16 19:37 14:04 09:24 00:08
Maximum _ 13,9 C 15,6 C 9,4 C 99 % 1016,9 hPa 5,8 l/m 0,07 h 0,08 h 394 W/m 54,7 km/h
SW (7 Bft)
100,00 %
Durchschnitt _ 7,8 C 7,2 C 4,2 C 91 % 1004,5 hPa #34,2 l/m #5:18 h #24:44 h 64 W/m 10,5 km/h (2 Bft) 96,14 %
© 2022 W. Hausmann